createdAt,value
2023-02-18T00:02:47.877Z,8.339844
2023-02-18T00:06:13.755Z,8.370056
2023-02-18T00:09:39.051Z,8.410339
2023-02-18T00:13:04.308Z,8.370056
2023-02-18T00:16:29.511Z,8.329773
2023-02-18T00:19:54.764Z,8.299561
2023-02-18T00:23:20.035Z,8.359985
2023-02-18T00:26:45.308Z,8.410339
2023-02-18T00:30:10.632Z,8.370056
2023-02-18T00:33:35.808Z,8.370056
2023-02-18T00:37:01.072Z,8.370056
2023-02-18T00:40:27.279Z,8.430481
2023-02-18T00:43:52.547Z,8.410339
2023-02-18T00:47:17.818Z,8.500977
2023-02-18T00:50:43.109Z,8.500977
2023-02-18T00:54:08.361Z,8.440552
2023-02-18T00:57:33.609Z,8.480835
2023-02-18T01:00:58.884Z,8.500977
2023-02-18T01:04:24.202Z,8.450623
2023-02-18T01:07:49.433Z,8.480835
2023-02-18T01:11:14.701Z,8.470764
2023-02-18T01:14:39.940Z,8.480835
2023-02-18T01:18:05.220Z,8.430481
2023-02-18T01:21:30.512Z,8.440552
2023-02-18T01:24:55.769Z,8.380127
2023-02-18T01:28:21.087Z,8.430481
2023-02-18T01:31:46.471Z,8.440552
2023-02-18T01:35:11.581Z,8.440552
2023-02-18T01:38:36.820Z,8.430481
2023-02-18T01:42:02.106Z,8.450623
2023-02-18T01:45:27.419Z,8.470764
2023-02-18T01:48:52.712Z,8.410339
2023-02-18T01:52:17.980Z,8.359985
2023-02-18T01:55:43.260Z,8.339844
2023-02-18T01:59:08.469Z,8.370056
2023-02-18T02:02:33.737Z,8.339844
2023-02-18T02:05:59.028Z,8.28949
2023-02-18T02:09:24.269Z,8.299561
2023-02-18T02:12:49.554Z,8.249207
2023-02-18T02:16:14.792Z,8.229065
2023-02-18T02:19:40.077Z,8.148499
2023-02-18T02:23:05.341Z,8.108215
2023-02-18T02:26:30.660Z,8.148499
2023-02-18T02:29:56.091Z,8.178711
2023-02-18T02:33:21.157Z,8.158569
2023-02-18T02:36:46.415Z,8.158569
2023-02-18T02:40:11.718Z,8.198853
2023-02-18T02:43:36.981Z,8.249207
2023-02-18T02:47:02.334Z,8.229065
2023-02-18T02:50:27.572Z,8.249207
2023-02-18T02:53:52.832Z,8.198853
2023-02-18T02:57:18.127Z,8.158569
2023-02-18T03:00:43.397Z,8.188782
2023-02-18T03:04:08.675Z,8.158569
2023-02-18T03:07:34.850Z,8.108215
2023-02-18T03:10:59.259Z,8.118286
2023-02-18T03:14:24.500Z,8.108215
2023-02-18T03:17:49.769Z,8.198853
2023-02-18T03:21:15.107Z,8.188782
2023-02-18T03:24:40.333Z,8.188782
2023-02-18T03:28:05.651Z,8.178711
2023-02-18T03:31:31.058Z,8.148499
2023-02-18T03:34:56.153Z,8.178711
2023-02-18T03:38:21.437Z,8.108215
2023-02-18T03:41:46.681Z,8.148499
2023-02-18T03:45:11.965Z,8.178711
2023-02-18T03:48:37.247Z,8.188782
2023-02-18T03:52:02.541Z,8.218994
2023-02-18T03:55:27.809Z,8.188782
2023-02-18T03:58:53.068Z,8.108215
2023-02-18T04:02:18.415Z,8.158569
2023-02-18T04:05:43.698Z,8.118286
2023-02-18T04:09:09.320Z,7.977295
2023-02-18T04:12:34.264Z,7.977295
2023-02-18T04:15:59.506Z,7.926941
2023-02-18T04:19:24.749Z,7.926941
2023-02-18T04:22:50.018Z,7.947083
2023-02-18T04:26:15.289Z,7.926941
2023-02-18T04:29:40.543Z,7.967224
2023-02-18T04:33:05.790Z,8.007507
2023-02-18T04:36:31.045Z,8.017578
2023-02-18T04:39:56.311Z,8.078003
2023-02-18T04:43:21.563Z,8.078003
2023-02-18T04:46:46.869Z,8.158569
2023-02-18T04:50:12.110Z,8.108215
2023-02-18T04:53:37.397Z,8.188782
2023-02-18T04:57:02.709Z,8.218994
2023-02-18T05:00:27.928Z,8.279419
2023-02-18T05:03:53.325Z,8.249207
2023-02-18T05:07:18.506Z,8.329773
2023-02-18T05:10:43.791Z,8.339844
2023-02-18T05:14:09.067Z,8.28949
2023-02-18T05:17:34.355Z,8.299561
2023-02-18T05:20:59.682Z,8.28949
2023-02-18T05:24:24.945Z,8.28949
2023-02-18T05:27:50.214Z,8.279419
2023-02-18T05:31:15.574Z,8.229065
2023-02-18T05:34:40.718Z,8.218994
2023-02-18T05:38:06.006Z,8.178711
2023-02-18T05:41:31.251Z,8.118286
2023-02-18T05:44:56.501Z,8.178711
2023-02-18T05:48:21.713Z,8.198853
2023-02-18T05:51:46.898Z,8.218994
2023-02-18T05:55:12.088Z,8.279419
2023-02-18T05:58:37.327Z,8.259277
2023-02-18T06:02:02.534Z,8.299561
2023-02-18T06:05:27.733Z,8.249207
2023-02-18T06:08:52.875Z,8.218994
2023-02-18T06:12:18.081Z,8.188782
2023-02-18T06:15:43.282Z,8.188782
2023-02-18T06:19:08.408Z,8.249207
2023-02-18T06:22:33.570Z,8.249207
2023-02-18T06:25:58.772Z,8.249207
2023-02-18T06:29:24.034Z,8.279419
2023-02-18T06:32:49.180Z,8.279419
2023-02-18T06:36:14.366Z,8.279419
2023-02-18T06:39:39.676Z,8.229065
2023-02-18T06:43:04.865Z,8.249207
2023-02-18T06:46:30.107Z,8.249207
2023-02-18T06:49:55.255Z,8.249207
2023-02-18T06:53:20.425Z,8.279419
2023-02-18T06:56:45.617Z,8.329773
2023-02-18T07:00:10.788Z,8.359985
2023-02-18T07:03:36.029Z,8.370056
2023-02-18T07:07:01.173Z,8.380127
2023-02-18T07:10:26.364Z,8.359985
2023-02-18T07:13:51.608Z,8.299561
2023-02-18T07:17:16.806Z,8.329773
2023-02-18T07:20:41.966Z,8.299561
2023-02-18T07:24:07.118Z,8.279419
2023-02-18T07:27:32.281Z,8.329773
2023-02-18T07:30:57.543Z,8.299561
2023-02-18T07:34:22.658Z,8.279419
2023-02-18T07:37:47.889Z,8.229065
2023-02-18T07:41:13.018Z,8.299561
2023-02-18T07:44:38.220Z,8.339844
2023-02-18T07:48:03.521Z,8.299561
2023-02-18T07:51:28.741Z,8.329773
2023-02-18T07:54:53.966Z,8.329773
2023-02-18T07:58:19.121Z,8.430481
2023-02-18T08:01:45.700Z,8.470764
2023-02-18T08:05:11.165Z,8.440552
2023-02-18T08:08:37.249Z,8.450623
2023-02-18T08:12:01.596Z,8.591614
2023-02-18T08:15:26.782Z,8.621826
2023-02-18T08:18:51.986Z,8.702393
2023-02-18T08:22:17.231Z,8.762817
2023-02-18T08:25:42.392Z,8.742676
2023-02-18T08:29:07.708Z,8.843384
2023-02-18T08:32:32.900Z,9.075012
2023-02-18T08:35:58.139Z,8.954163
2023-02-18T08:39:23.329Z,8.843384
2023-02-18T08:42:48.584Z,8.803101
2023-02-18T08:46:15.943Z,8.813171
2023-02-18T08:49:39.050Z,8.813171
2023-02-18T08:53:04.297Z,9.17572
2023-02-18T08:56:29.569Z,9.467773
2023-02-18T08:59:54.823Z,9.528198
2023-02-18T09:03:20.116Z,9.638977
2023-02-18T09:06:45.251Z,9.719543
2023-02-18T09:10:10.490Z,9.759827
2023-02-18T09:13:35.729Z,9.719543
2023-02-18T09:17:00.899Z,9.649048
2023-02-18T09:20:26.187Z,9.67926
2023-02-18T09:23:51.328Z,9.608765
2023-02-18T09:27:16.597Z,9.638977
2023-02-18T09:30:42.025Z,9.638977
2023-02-18T09:34:07.208Z,9.578552
2023-02-18T09:37:32.497Z,9.558411
2023-02-18T09:40:57.789Z,9.638977
2023-02-18T09:44:23.054Z,9.457703
2023-02-18T09:47:48.325Z,9.306641
2023-02-18T09:51:13.582Z,9.276428
2023-02-18T09:54:38.868Z,9.256287
2023-02-18T09:58:04.104Z,9.276428
2023-02-18T10:01:29.366Z,9.236145
2023-02-18T10:04:54.619Z,9.195862
2023-02-18T10:08:19.834Z,9.135437
2023-02-18T10:11:45.107Z,9.17572
2023-02-18T10:15:10.286Z,9.135437
2023-02-18T10:18:35.534Z,8.964233
2023-02-18T10:22:00.785Z,9.125366
2023-02-18T10:25:26.110Z,9.054871
2023-02-18T10:28:51.448Z,9.205933
2023-02-18T10:32:16.870Z,9.135437
2023-02-18T10:35:42.121Z,9.195862
2023-02-18T10:39:07.373Z,9.054871
2023-02-18T10:42:32.616Z,8.712463
2023-02-18T10:45:57.916Z,8.561401
2023-02-18T10:49:23.119Z,8.380127
2023-02-18T10:52:48.400Z,8.380127
2023-02-18T10:56:13.669Z,8.329773
2023-02-18T10:59:38.828Z,8.279419
2023-02-18T11:03:04.107Z,8.218994
2023-02-18T11:06:29.409Z,8.279419
2023-02-18T11:09:54.653Z,8.279419
2023-02-18T11:13:19.921Z,8.299561
2023-02-18T11:16:45.198Z,8.299561
2023-02-18T11:20:10.538Z,8.259277
2023-02-18T11:23:35.766Z,8.28949
2023-02-18T11:27:01.061Z,8.299561
2023-02-18T11:30:26.440Z,8.299561
2023-02-18T11:33:51.517Z,8.400269
2023-02-18T11:37:16.714Z,8.440552
2023-02-18T11:40:41.868Z,8.400269
2023-02-18T11:44:07.048Z,8.380127
2023-02-18T11:47:32.300Z,8.410339
2023-02-18T11:50:57.551Z,8.259277
2023-02-18T11:54:22.941Z,8.188782
2023-02-18T11:57:48.087Z,8.249207
2023-02-18T12:01:13.381Z,8.28949
2023-02-18T12:04:38.641Z,8.28949
2023-02-18T12:08:03.936Z,8.380127
2023-02-18T12:11:29.405Z,8.500977
2023-02-18T12:14:54.680Z,8.440552
2023-02-18T12:18:19.968Z,8.480835
2023-02-18T12:21:45.247Z,8.430481
2023-02-18T12:25:10.519Z,8.470764
2023-02-18T12:28:35.806Z,8.521118
2023-02-18T12:32:01.222Z,8.480835
2023-02-18T12:35:26.477Z,8.581543
2023-02-18T12:38:52.062Z,8.662109
2023-02-18T12:42:17.421Z,8.742676
2023-02-18T12:45:42.812Z,8.762817
2023-02-18T12:49:08.043Z,8.742676
2023-02-18T12:52:33.387Z,8.772888
2023-02-18T12:55:58.703Z,8.813171
2023-02-18T12:59:23.981Z,8.813171
2023-02-18T13:02:49.334Z,8.813171
2023-02-18T13:06:14.663Z,8.833313
2023-02-18T13:09:39.996Z,8.772888
2023-02-18T13:13:05.317Z,8.762817
2023-02-18T13:16:31.165Z,8.652039
2023-02-18T13:19:55.993Z,8.611755
2023-02-18T13:23:21.324Z,8.521118
2023-02-18T13:26:46.597Z,8.652039
2023-02-18T13:30:11.954Z,8.702393
2023-02-18T13:33:37.274Z,8.712463
2023-02-18T13:37:02.610Z,8.863525
2023-02-18T13:40:27.891Z,8.964233
2023-02-18T13:43:53.207Z,9.095154
2023-02-18T13:47:18.555Z,9.075012
2023-02-18T13:50:43.889Z,9.095154
2023-02-18T13:54:09.171Z,9.145508
2023-02-18T13:57:34.459Z,8.964233
2023-02-18T14:00:59.849Z,8.913879
2023-02-18T14:04:25.156Z,8.79303
2023-02-18T14:07:50.499Z,8.762817
2023-02-18T14:11:15.843Z,8.702393
2023-02-18T14:14:41.195Z,8.561401
2023-02-18T14:18:06.509Z,8.470764
2023-02-18T14:21:31.789Z,8.410339
2023-02-18T14:24:57.042Z,8.198853
2023-02-18T14:28:22.357Z,8.158569
2023-02-18T15:04:33.480Z,8.108215
2023-02-18T15:07:58.786Z,8.158569
2023-02-18T15:11:24.057Z,8.198853
2023-02-18T15:14:49.321Z,8.158569
2023-02-18T15:18:14.638Z,8.118286
2023-02-18T15:21:40.069Z,8.108215
2023-02-18T15:25:05.372Z,8.108215
2023-02-18T15:28:30.672Z,8.108215
2023-02-18T15:31:56.040Z,8.148499
2023-02-18T15:35:21.193Z,8.108215
2023-02-18T15:38:46.478Z,8.158569
2023-02-18T15:42:11.782Z,8.108215
2023-02-18T15:45:37.038Z,8.078003
2023-02-18T15:49:02.307Z,8.158569
2023-02-18T15:52:27.547Z,8.229065
2023-02-18T15:55:52.947Z,8.188782
2023-02-18T15:59:18.092Z,8.118286
2023-02-18T16:02:43.406Z,8.098145
2023-02-18T16:06:08.695Z,8.178711
2023-02-18T16:09:33.959Z,8.098145
2023-02-18T16:12:59.254Z,8.047791
2023-02-18T16:16:24.491Z,8.108215
2023-02-18T16:20:03.112Z,8.067932
2023-02-18T16:23:14.977Z,8.007507
2023-02-18T16:26:40.257Z,7.947083
2023-02-18T16:30:05.568Z,7.967224
2023-02-18T16:33:30.811Z,8.007507
2023-02-18T16:36:56.528Z,8.007507
2023-02-18T16:40:21.781Z,7.896729
2023-02-18T16:43:47.043Z,7.886658
2023-02-18T16:47:12.385Z,7.856445
2023-02-18T16:50:39.357Z,7.866516
2023-02-18T16:54:04.780Z,7.826233
2023-02-18T16:57:30.025Z,7.715454
2023-02-18T17:00:55.432Z,7.826233
2023-02-18T17:04:20.819Z,7.6651
2023-02-18T17:07:46.054Z,7.6651
2023-02-18T17:11:11.685Z,7.614746
2023-02-18T17:14:37.274Z,7.675171
2023-02-18T17:18:02.788Z,7.634888
2023-02-18T17:21:28.104Z,7.6651
2023-02-18T17:24:54.974Z,7.604675
2023-02-18T17:28:20.791Z,7.6651
2023-02-18T17:31:46.205Z,7.554321
2023-02-18T17:35:12.246Z,7.493896
2023-02-18T17:38:39.484Z,7.503967
2023-02-18T17:42:04.803Z,7.554321
2023-02-18T17:45:30.521Z,7.6651
2023-02-18T17:48:55.901Z,7.685242
2023-02-18T17:52:21.304Z,7.675171
2023-02-18T17:55:47.024Z,7.705383
2023-02-18T17:59:12.924Z,7.705383
2023-02-18T18:02:38.245Z,7.735596
2023-02-18T18:06:03.724Z,7.705383
2023-02-18T18:09:29.044Z,7.715454
2023-02-18T18:12:54.323Z,7.796021
2023-02-18T18:16:19.597Z,7.826233
2023-02-18T18:19:45.712Z,7.856445
2023-02-18T18:23:11.013Z,7.856445
2023-02-18T18:26:36.303Z,7.856445
2023-02-18T18:30:01.614Z,7.866516
2023-02-18T18:33:26.893Z,7.896729
2023-02-18T18:36:52.227Z,7.91687
2023-02-18T18:40:17.515Z,7.896729
2023-02-18T18:43:42.912Z,7.856445
2023-02-18T18:47:08.268Z,7.846375
2023-02-18T18:50:33.537Z,7.866516
2023-02-18T18:53:58.798Z,7.866516
2023-02-18T18:57:24.173Z,7.78595
2023-02-18T19:00:49.489Z,7.78595
2023-02-18T19:04:14.831Z,7.816162
2023-02-18T19:07:40.096Z,7.886658
2023-02-18T19:11:05.385Z,7.947083
2023-02-18T19:14:30.750Z,7.896729
2023-02-18T19:17:56.025Z,7.886658
2023-02-18T19:21:21.367Z,7.91687
2023-02-18T19:24:46.645Z,7.91687
2023-02-18T19:28:11.915Z,7.967224
2023-02-18T19:31:37.369Z,7.947083
2023-02-18T19:35:02.495Z,8.007507
2023-02-18T19:38:27.756Z,7.967224
2023-02-18T19:41:52.991Z,8.03772
2023-02-18T19:45:18.319Z,8.098145
2023-02-18T19:48:43.574Z,8.188782
2023-02-18T19:52:08.916Z,8.188782
2023-02-18T19:55:34.175Z,8.249207
2023-02-18T19:58:59.579Z,8.198853
2023-02-18T20:02:24.970Z,8.178711
2023-02-18T20:05:50.231Z,8.178711
2023-02-18T20:09:15.595Z,8.067932
2023-02-18T20:12:40.905Z,7.926941
2023-02-18T20:16:06.250Z,7.91687
2023-02-18T20:19:31.925Z,7.91687
2023-02-18T20:22:56.836Z,7.91687
2023-02-18T20:26:22.134Z,7.977295
2023-02-18T20:29:47.430Z,7.896729
2023-02-18T20:33:12.713Z,7.997437
2023-02-18T20:36:37.976Z,7.926941
2023-02-18T20:40:03.270Z,7.91687
2023-02-18T20:43:28.586Z,7.886658
2023-02-18T20:46:53.922Z,7.947083
2023-02-18T20:50:19.185Z,7.926941
2023-02-18T20:53:44.456Z,7.926941
2023-02-18T20:57:09.691Z,7.947083
2023-02-18T21:00:34.953Z,7.91687
2023-02-18T21:04:00.301Z,7.91687
2023-02-18T21:07:25.589Z,7.91687
2023-02-18T21:10:50.893Z,7.926941
2023-02-18T21:14:16.252Z,7.896729
2023-02-18T21:17:41.518Z,7.926941
2023-02-18T21:21:06.871Z,7.967224
2023-02-18T21:24:32.137Z,7.926941
2023-02-18T21:27:57.394Z,7.967224
2023-02-18T21:31:22.902Z,7.886658
2023-02-18T21:34:48.106Z,7.886658
2023-02-18T21:38:13.402Z,7.926941
2023-02-18T21:41:40.653Z,7.977295
2023-02-18T21:45:03.981Z,8.007507
2023-02-18T21:48:29.285Z,8.017578
2023-02-18T21:51:54.560Z,7.977295
2023-02-18T21:55:19.880Z,7.866516
2023-02-18T21:58:45.175Z,7.886658
2023-02-18T22:02:10.542Z,7.886658
2023-02-18T22:05:35.817Z,7.796021
2023-02-18T22:09:01.153Z,7.765808
2023-02-18T22:12:26.423Z,7.745667
2023-02-18T22:15:51.689Z,7.765808
2023-02-18T22:19:16.958Z,7.796021
2023-02-18T22:22:42.306Z,7.735596
2023-02-18T22:26:07.589Z,7.705383
2023-02-18T22:29:32.895Z,7.685242
2023-02-18T22:32:58.140Z,7.735596
2023-02-18T22:36:23.527Z,7.715454
2023-02-18T22:39:48.726Z,7.735596
2023-02-18T22:43:14.015Z,7.745667
2023-02-18T22:46:39.326Z,7.745667
2023-02-18T22:50:04.594Z,7.705383
2023-02-18T22:53:29.913Z,7.705383
2023-02-18T22:56:55.192Z,7.634888
2023-02-18T23:00:20.536Z,7.6651
2023-02-18T23:03:45.939Z,7.675171
2023-02-18T23:07:11.231Z,7.6651
2023-02-18T23:10:36.491Z,7.685242
2023-02-18T23:14:01.784Z,7.685242
2023-02-18T23:17:27.132Z,7.715454
2023-02-18T23:20:52.482Z,7.705383
2023-02-18T23:24:17.731Z,7.765808
2023-02-18T23:27:42.995Z,7.745667
2023-02-18T23:31:08.771Z,7.735596
2023-02-18T23:34:33.520Z,7.735596
2023-02-18T23:37:58.801Z,7.715454
2023-02-18T23:41:24.021Z,7.705383
2023-02-18T23:44:49.308Z,7.6651
2023-02-18T23:48:14.531Z,7.604675
2023-02-18T23:51:39.825Z,7.614746
2023-02-18T23:55:05.077Z,7.604675
2023-02-18T23:58:30.316Z,7.614746
